sensor_id;sensor_type;location;lat;lon;timestamp;temperature;humidity
2955;DHT22;1487;51.470;6.938;2023-07-20T00:00:56;17.50;99.90
2955;DHT22;1487;51.470;6.938;2023-07-20T00:03:23;17.50;99.90
2955;DHT22;1487;51.470;6.938;2023-07-20T00:05:50;17.60;99.90
2955;DHT22;1487;51.470;6.938;2023-07-20T00:08:17;17.60;99.90
2955;DHT22;1487;51.470;6.938;2023-07-20T00:10:45;17.60;99.90
2955;DHT22;1487;51.470;6.938;2023-07-20T00:13:12;17.70;99.90
2955;DHT22;1487;51.470;6.938;2023-07-20T00:15:41;17.70;99.90
2955;DHT22;1487;51.470;6.938;2023-07-20T00:18:08;17.60;99.90
2955;DHT22;1487;51.470;6.938;2023-07-20T00:20:35;17.60;99.90
2955;DHT22;1487;51.470;6.938;2023-07-20T00:23:02;17.50;99.90
2955;DHT22;1487;51.470;6.938;2023-07-20T00:25:28;17.50;99.90
2955;DHT22;1487;51.470;6.938;2023-07-20T00:27:56;17.50;99.90
2955;DHT22;1487;51.470;6.938;2023-07-20T00:30:23;17.40;99.90
2955;DHT22;1487;51.470;6.938;2023-07-20T00:32:50;17.40;99.90
2955;DHT22;1487;51.470;6.938;2023-07-20T00:35:17;17.30;99.90
2955;DHT22;1487;51.470;6.938;2023-07-20T00:37:43;17.30;99.90
2955;DHT22;1487;51.470;6.938;2023-07-20T00:40:10;17.30;99.90
2955;DHT22;1487;51.470;6.938;2023-07-20T00:42:37;17.30;99.90
2955;DHT22;1487;51.470;6.938;2023-07-20T00:45:07;17.30;99.90
2955;DHT22;1487;51.470;6.938;2023-07-20T00:47:33;17.30;99.90
2955;DHT22;1487;51.470;6.938;2023-07-20T00:50:00;17.20;99.90
2955;DHT22;1487;51.470;6.938;2023-07-20T00:52:28;17.30;99.90
2955;DHT22;1487;51.470;6.938;2023-07-20T00:54:56;17.30;99.90
2955;DHT22;1487;51.470;6.938;2023-07-20T00:57:24;17.30;99.90
2955;DHT22;1487;51.470;6.938;2023-07-20T00:59:51;17.30;99.90
2955;DHT22;1487;51.470;6.938;2023-07-20T01:02:20;17.30;99.90
2955;DHT22;1487;51.470;6.938;2023-07-20T01:04:47;17.40;99.90
2955;DHT22;1487;51.470;6.938;2023-07-20T01:07:20;17.40;99.90
2955;DHT22;1487;51.470;6.938;2023-07-20T01:09:55;17.40;99.90
2955;DHT22;1487;51.470;6.938;2023-07-20T01:12:30;17.30;99.90
2955;DHT22;1487;51.470;6.938;2023-07-20T01:14:59;17.30;99.90
2955;DHT22;1487;51.470;6.938;2023-07-20T01:17:28;17.20;99.90
2955;DHT22;1487;51.470;6.938;2023-07-20T01:19:54;17.20;99.90
2955;DHT22;1487;51.470;6.938;2023-07-20T01:22:36;17.20;99.90
2955;DHT22;1487;51.470;6.938;2023-07-20T01:25:21;17.20;99.90
2955;DHT22;1487;51.470;6.938;2023-07-20T01:31:08;17.10;99.90
2955;DHT22;1487;51.470;6.938;2023-07-20T01:33:36;17.10;99.90
2955;DHT22;1487;51.470;6.938;2023-07-20T01:36:04;17.10;99.90
2955;DHT22;1487;51.470;6.938;2023-07-20T01:38:31;17.10;99.90
2955;DHT22;1487;51.470;6.938;2023-07-20T01:40:58;17.10;99.90
2955;DHT22;1487;51.470;6.938;2023-07-20T01:43:25;17.10;99.90
2955;DHT22;1487;51.470;6.938;2023-07-20T01:45:52;17.00;99.90
2955;DHT22;1487;51.470;6.938;2023-07-20T01:48:20;17.00;99.90
2955;DHT22;1487;51.470;6.938;2023-07-20T01:50:47;17.10;99.90
2955;DHT22;1487;51.470;6.938;2023-07-20T01:53:13;17.10;99.90
2955;DHT22;1487;51.470;6.938;2023-07-20T01:55:40;17.10;99.90
2955;DHT22;1487;51.470;6.938;2023-07-20T01:58:07;17.00;99.90
2955;DHT22;1487;51.470;6.938;2023-07-20T02:00:36;16.80;99.90
2955;DHT22;1487;51.470;6.938;2023-07-20T02:03:03;16.60;99.90
2955;DHT22;1487;51.470;6.938;2023-07-20T02:05:31;16.50;99.90
2955;DHT22;1487;51.470;6.938;2023-07-20T02:07:58;16.30;99.90
2955;DHT22;1487;51.470;6.938;2023-07-20T02:10:24;16.30;99.90
2955;DHT22;1487;51.470;6.938;2023-07-20T02:12:51;16.30;99.90
2955;DHT22;1487;51.470;6.938;2023-07-20T02:15:18;16.20;99.90
2955;DHT22;1487;51.470;6.938;2023-07-20T02:17:45;16.20;99.90
2955;DHT22;1487;51.470;6.938;2023-07-20T02:20:11;16.20;99.90
2955;DHT22;1487;51.470;6.938;2023-07-20T02:22:40;16.10;99.90
2955;DHT22;1487;51.470;6.938;2023-07-20T02:25:07;16.10;99.90
2955;DHT22;1487;51.470;6.938;2023-07-20T02:27:34;16.10;99.90
2955;DHT22;1487;51.470;6.938;2023-07-20T02:30:02;16.10;99.90
2955;DHT22;1487;51.470;6.938;2023-07-20T02:32:30;16.20;99.90
2955;DHT22;1487;51.470;6.938;2023-07-20T02:34:57;16.10;99.90
2955;DHT22;1487;51.470;6.938;2023-07-20T02:37:24;16.00;99.90
2955;DHT22;1487;51.470;6.938;2023-07-20T02:39:52;15.90;99.90
2955;DHT22;1487;51.470;6.938;2023-07-20T02:42:19;15.90;99.90
2955;DHT22;1487;51.470;6.938;2023-07-20T02:44:48;15.80;99.90
2955;DHT22;1487;51.470;6.938;2023-07-20T02:47:15;15.80;99.90
2955;DHT22;1487;51.470;6.938;2023-07-20T02:49:41;15.80;99.90
2955;DHT22;1487;51.470;6.938;2023-07-20T02:52:09;15.80;99.90
2955;DHT22;1487;51.470;6.938;2023-07-20T02:54:36;15.70;99.90
2955;DHT22;1487;51.470;6.938;2023-07-20T02:57:04;15.70;99.90
2955;DHT22;1487;51.470;6.938;2023-07-20T02:59:31;15.70;99.90
2955;DHT22;1487;51.470;6.938;2023-07-20T03:01:58;15.70;99.90
2955;DHT22;1487;51.470;6.938;2023-07-20T03:04:26;15.70;99.90
2955;DHT22;1487;51.470;6.938;2023-07-20T03:06:53;15.60;99.90
2955;DHT22;1487;51.470;6.938;2023-07-20T03:09:19;15.60;99.90
2955;DHT22;1487;51.470;6.938;2023-07-20T03:11:47;15.60;99.90
2955;DHT22;1487;51.470;6.938;2023-07-20T03:14:15;15.60;99.90
2955;DHT22;1487;51.470;6.938;2023-07-20T03:16:42;15.50;99.90
2955;DHT22;1487;51.470;6.938;2023-07-20T03:19:09;15.40;99.90
2955;DHT22;1487;51.470;6.938;2023-07-20T03:21:36;15.40;99.90
2955;DHT22;1487;51.470;6.938;2023-07-20T03:24:06;15.40;99.90
2955;DHT22;1487;51.470;6.938;2023-07-20T03:26:33;15.50;99.90
2955;DHT22;1487;51.470;6.938;2023-07-20T03:29:00;15.50;99.90
2955;DHT22;1487;51.470;6.938;2023-07-20T03:31:28;15.50;99.90
2955;DHT22;1487;51.470;6.938;2023-07-20T03:33:55;15.50;99.90
2955;DHT22;1487;51.470;6.938;2023-07-20T03:36:22;15.60;99.90
2955;DHT22;1487;51.470;6.938;2023-07-20T03:38:49;15.60;99.90
2955;DHT22;1487;51.470;6.938;2023-07-20T03:41:16;15.60;99.90
2955;DHT22;1487;51.470;6.938;2023-07-20T03:43:45;15.70;99.90
2955;DHT22;1487;51.470;6.938;2023-07-20T03:46:12;15.70;99.90
2955;DHT22;1487;51.470;6.938;2023-07-20T03:48:40;15.70;99.90
2955;DHT22;1487;51.470;6.938;2023-07-20T03:51:07;15.80;99.90
2955;DHT22;1487;51.470;6.938;2023-07-20T03:53:33;15.80;99.90
2955;DHT22;1487;51.470;6.938;2023-07-20T03:56:00;15.80;99.90
2955;DHT22;1487;51.470;6.938;2023-07-20T03:58:27;15.90;99.90
2955;DHT22;1487;51.470;6.938;2023-07-20T04:00:55;15.90;99.90
2955;DHT22;1487;51.470;6.938;2023-07-20T04:03:23;15.90;99.90
2955;DHT22;1487;51.470;6.938;2023-07-20T04:05:54;15.90;99.90
2955;DHT22;1487;51.470;6.938;2023-07-20T04:08:22;15.90;99.90
2955;DHT22;1487;51.470;6.938;2023-07-20T04:10:49;15.90;99.90
2955;DHT22;1487;51.470;6.938;2023-07-20T04:13:17;15.90;99.90
2955;DHT22;1487;51.470;6.938;2023-07-20T04:15:44;16.00;99.90
2955;DHT22;1487;51.470;6.938;2023-07-20T04:18:10;15.90;99.90
2955;DHT22;1487;51.470;6.938;2023-07-20T04:20:37;15.90;99.90
2955;DHT22;1487;51.470;6.938;2023-07-20T04:23:05;15.90;99.90
2955;DHT22;1487;51.470;6.938;2023-07-20T04:25:32;15.90;99.90
2955;DHT22;1487;51.470;6.938;2023-07-20T04:28:05;15.90;99.90
2955;DHT22;1487;51.470;6.938;2023-07-20T04:30:34;15.90;99.90
2955;DHT22;1487;51.470;6.938;2023-07-20T04:33:02;15.80;99.90
2955;DHT22;1487;51.470;6.938;2023-07-20T04:35:49;15.80;99.90
2955;DHT22;1487;51.470;6.938;2023-07-20T04:38:17;15.90;99.90
2955;DHT22;1487;51.470;6.938;2023-07-20T04:40:45;15.90;99.90
2955;DHT22;1487;51.470;6.938;2023-07-20T04:43:12;15.90;99.90
2955;DHT22;1487;51.470;6.938;2023-07-20T04:45:39;16.00;99.90
2955;DHT22;1487;51.470;6.938;2023-07-20T04:48:10;15.90;99.90
2955;DHT22;1487;51.470;6.938;2023-07-20T04:50:38;16.00;99.90
2955;DHT22;1487;51.470;6.938;2023-07-20T04:53:04;16.00;99.90
2955;DHT22;1487;51.470;6.938;2023-07-20T04:55:33;16.00;99.90
2955;DHT22;1487;51.470;6.938;2023-07-20T04:58:00;16.00;99.90
2955;DHT22;1487;51.470;6.938;2023-07-20T05:00:27;16.00;99.90
2955;DHT22;1487;51.470;6.938;2023-07-20T05:02:54;16.00;99.90
2955;DHT22;1487;51.470;6.938;2023-07-20T05:05:20;16.00;99.90
2955;DHT22;1487;51.470;6.938;2023-07-20T05:07:47;16.10;99.90
2955;DHT22;1487;51.470;6.938;2023-07-20T05:10:14;16.10;99.90
2955;DHT22;1487;51.470;6.938;2023-07-20T05:12:42;16.10;99.90
2955;DHT22;1487;51.470;6.938;2023-07-20T05:15:09;16.20;99.90
2955;DHT22;1487;51.470;6.938;2023-07-20T05:17:36;16.30;99.90
2955;DHT22;1487;51.470;6.938;2023-07-20T05:20:03;16.30;99.90
2955;DHT22;1487;51.470;6.938;2023-07-20T05:22:31;16.20;99.90
2955;DHT22;1487;51.470;6.938;2023-07-20T05:24:57;16.10;99.90
2955;DHT22;1487;51.470;6.938;2023-07-20T05:27:24;16.10;99.90
2955;DHT22;1487;51.470;6.938;2023-07-20T05:29:52;16.00;99.90
2955;DHT22;1487;51.470;6.938;2023-07-20T05:32:19;16.00;99.90
2955;DHT22;1487;51.470;6.938;2023-07-20T05:34:46;16.00;99.90
2955;DHT22;1487;51.470;6.938;2023-07-20T05:37:12;16.00;99.90
2955;DHT22;1487;51.470;6.938;2023-07-20T05:39:39;16.00;99.90
2955;DHT22;1487;51.470;6.938;2023-07-20T05:42:06;16.00;99.90
2955;DHT22;1487;51.470;6.938;2023-07-20T05:44:33;16.00;99.90
2955;DHT22;1487;51.470;6.938;2023-07-20T05:47:01;16.10;99.90
2955;DHT22;1487;51.470;6.938;2023-07-20T05:49:29;16.20;99.90
2955;DHT22;1487;51.470;6.938;2023-07-20T05:51:56;16.20;99.90
2955;DHT22;1487;51.470;6.938;2023-07-20T05:54:24;16.30;99.90
2955;DHT22;1487;51.470;6.938;2023-07-20T05:56:51;16.40;99.90
2955;DHT22;1487;51.470;6.938;2023-07-20T05:59:18;16.50;99.90
2955;DHT22;1487;51.470;6.938;2023-07-20T06:01:45;16.50;99.90
2955;DHT22;1487;51.470;6.938;2023-07-20T06:04:16;16.60;99.90
2955;DHT22;1487;51.470;6.938;2023-07-20T06:06:42;16.70;99.90
2955;DHT22;1487;51.470;6.938;2023-07-20T06:09:09;16.70;99.90
2955;DHT22;1487;51.470;6.938;2023-07-20T06:11:37;17.00;99.90
2955;DHT22;1487;51.470;6.938;2023-07-20T06:14:04;17.20;99.90
2955;DHT22;1487;51.470;6.938;2023-07-20T06:16:31;17.40;99.90
2955;DHT22;1487;51.470;6.938;2023-07-20T06:18:59;17.50;99.90
2955;DHT22;1487;51.470;6.938;2023-07-20T06:21:27;17.80;99.90
2955;DHT22;1487;51.470;6.938;2023-07-20T06:23:54;18.20;99.90
2955;DHT22;1487;51.470;6.938;2023-07-20T06:26:21;18.70;99.90
2955;DHT22;1487;51.470;6.938;2023-07-20T06:28:47;18.90;99.90
2955;DHT22;1487;51.470;6.938;2023-07-20T06:31:14;18.80;99.90
2955;DHT22;1487;51.470;6.938;2023-07-20T06:33:41;18.70;99.90
2955;DHT22;1487;51.470;6.938;2023-07-20T06:36:08;18.50;99.90
2955;DHT22;1487;51.470;6.938;2023-07-20T06:38:36;18.50;99.90
2955;DHT22;1487;51.470;6.938;2023-07-20T06:41:02;18.60;99.90
2955;DHT22;1487;51.470;6.938;2023-07-20T06:43:29;18.90;99.90
2955;DHT22;1487;51.470;6.938;2023-07-20T06:45:56;19.20;99.90
2955;DHT22;1487;51.470;6.938;2023-07-20T06:48:23;19.50;99.90
2955;DHT22;1487;51.470;6.938;2023-07-20T06:50:49;20.30;99.90
2955;DHT22;1487;51.470;6.938;2023-07-20T06:53:16;20.50;99.90
2955;DHT22;1487;51.470;6.938;2023-07-20T06:55:45;21.00;99.90
2955;DHT22;1487;51.470;6.938;2023-07-20T06:58:11;21.60;99.90
2955;DHT22;1487;51.470;6.938;2023-07-20T07:00:38;21.90;99.90
2955;DHT22;1487;51.470;6.938;2023-07-20T07:03:05;22.60;99.90
2955;DHT22;1487;51.470;6.938;2023-07-20T07:05:36;23.00;99.90
2955;DHT22;1487;51.470;6.938;2023-07-20T07:08:04;23.60;99.90
2955;DHT22;1487;51.470;6.938;2023-07-20T07:10:31;24.00;99.90
2955;DHT22;1487;51.470;6.938;2023-07-20T07:12:59;23.60;99.90
2955;DHT22;1487;51.470;6.938;2023-07-20T07:15:26;23.20;99.90
2955;DHT22;1487;51.470;6.938;2023-07-20T07:17:53;22.60;99.90
2955;DHT22;1487;51.470;6.938;2023-07-20T07:20:20;22.30;99.90
2955;DHT22;1487;51.470;6.938;2023-07-20T07:22:47;22.40;99.90
2955;DHT22;1487;51.470;6.938;2023-07-20T07:25:14;22.60;99.90
2955;DHT22;1487;51.470;6.938;2023-07-20T07:27:41;23.30;99.90
2955;DHT22;1487;51.470;6.938;2023-07-20T07:30:11;24.00;99.90
2955;DHT22;1487;51.470;6.938;2023-07-20T07:32:38;24.50;99.90
2955;DHT22;1487;51.470;6.938;2023-07-20T07:35:05;25.30;99.90
2955;DHT22;1487;51.470;6.938;2023-07-20T07:37:32;25.90;99.90
2955;DHT22;1487;51.470;6.938;2023-07-20T07:39:59;25.80;99.90
2955;DHT22;1487;51.470;6.938;2023-07-20T07:42:26;26.30;99.90
2955;DHT22;1487;51.470;6.938;2023-07-20T07:44:53;26.70;99.90
2955;DHT22;1487;51.470;6.938;2023-07-20T07:47:21;26.50;99.90
2955;DHT22;1487;51.470;6.938;2023-07-20T07:49:48;26.20;99.90
2955;DHT22;1487;51.470;6.938;2023-07-20T07:52:15;25.80;99.90
2955;DHT22;1487;51.470;6.938;2023-07-20T07:54:41;25.20;99.90
2955;DHT22;1487;51.470;6.938;2023-07-20T07:57:08;24.40;99.90
2955;DHT22;1487;51.470;6.938;2023-07-20T07:59:35;23.70;99.90
2955;DHT22;1487;51.470;6.938;2023-07-20T08:02:04;23.80;99.90
2955;DHT22;1487;51.470;6.938;2023-07-20T08:04:33;24.60;99.90
2955;DHT22;1487;51.470;6.938;2023-07-20T08:07:01;25.40;99.90
2955;DHT22;1487;51.470;6.938;2023-07-20T08:09:29;26.20;99.90
2955;DHT22;1487;51.470;6.938;2023-07-20T08:11:55;26.40;99.90
2955;DHT22;1487;51.470;6.938;2023-07-20T08:14:22;26.80;99.90
2955;DHT22;1487;51.470;6.938;2023-07-20T08:16:50;27.50;99.90
2955;DHT22;1487;51.470;6.938;2023-07-20T08:19:17;28.00;99.90
2955;DHT22;1487;51.470;6.938;2023-07-20T08:21:45;28.30;99.90
2955;DHT22;1487;51.470;6.938;2023-07-20T08:24:12;28.40;99.90
2955;DHT22;1487;51.470;6.938;2023-07-20T08:26:39;29.20;99.80
2955;DHT22;1487;51.470;6.938;2023-07-20T08:29:06;29.30;93.80
2955;DHT22;1487;51.470;6.938;2023-07-20T08:31:33;29.60;92.10
2955;DHT22;1487;51.470;6.938;2023-07-20T08:34:00;30.10;93.10
2955;DHT22;1487;51.470;6.938;2023-07-20T08:36:26;30.10;85.50
2955;DHT22;1487;51.470;6.938;2023-07-20T08:38:55;29.80;86.00
2955;DHT22;1487;51.470;6.938;2023-07-20T08:41:21;29.60;87.90
2955;DHT22;1487;51.470;6.938;2023-07-20T08:43:49;29.80;89.60
2955;DHT22;1487;51.470;6.938;2023-07-20T08:46:17;30.10;83.60
2955;DHT22;1487;51.470;6.938;2023-07-20T08:48:44;30.10;80.60
2955;DHT22;1487;51.470;6.938;2023-07-20T08:51:11;30.50;86.00
2955;DHT22;1487;51.470;6.938;2023-07-20T08:53:39;30.70;82.70
2955;DHT22;1487;51.470;6.938;2023-07-20T08:56:09;29.80;79.10
2955;DHT22;1487;51.470;6.938;2023-07-20T08:58:37;29.10;84.10
2955;DHT22;1487;51.470;6.938;2023-07-20T09:01:06;29.20;89.90
2955;DHT22;1487;51.470;6.938;2023-07-20T09:03:33;28.70;85.60
2955;DHT22;1487;51.470;6.938;2023-07-20T09:06:00;27.60;85.00
2955;DHT22;1487;51.470;6.938;2023-07-20T09:08:27;26.80;87.30
2955;DHT22;1487;51.470;6.938;2023-07-20T09:10:53;27.20;87.60
2955;DHT22;1487;51.470;6.938;2023-07-20T09:13:21;28.00;90.50
2955;DHT22;1487;51.470;6.938;2023-07-20T09:15:53;29.00;86.80
2955;DHT22;1487;51.470;6.938;2023-07-20T09:18:24;29.60;82.50
2955;DHT22;1487;51.470;6.938;2023-07-20T09:20:51;30.30;79.00
2955;DHT22;1487;51.470;6.938;2023-07-20T09:23:18;30.60;75.00
2955;DHT22;1487;51.470;6.938;2023-07-20T09:25:47;31.00;82.70
2955;DHT22;1487;51.470;6.938;2023-07-20T09:28:16;31.70;83.60
2955;DHT22;1487;51.470;6.938;2023-07-20T09:30:45;31.50;73.00
2955;DHT22;1487;51.470;6.938;2023-07-20T09:33:18;30.70;76.40
2955;DHT22;1487;51.470;6.938;2023-07-20T09:35:45;29.80;77.00
2955;DHT22;1487;51.470;6.938;2023-07-20T09:38:14;28.40;80.20
2955;DHT22;1487;51.470;6.938;2023-07-20T09:40:42;27.30;81.50
2955;DHT22;1487;51.470;6.938;2023-07-20T09:43:09;26.20;86.30
2955;DHT22;1487;51.470;6.938;2023-07-20T09:45:39;25.80;90.20
2955;DHT22;1487;51.470;6.938;2023-07-20T09:48:10;26.80;94.60
2955;DHT22;1487;51.470;6.938;2023-07-20T09:50:39;27.60;86.50
2955;DHT22;1487;51.470;6.938;2023-07-20T09:53:08;28.00;90.00
2955;DHT22;1487;51.470;6.938;2023-07-20T09:55:36;28.50;86.10
2955;DHT22;1487;51.470;6.938;2023-07-20T09:58:03;28.80;85.40
2955;DHT22;1487;51.470;6.938;2023-07-20T10:00:33;29.10;81.70
2955;DHT22;1487;51.470;6.938;2023-07-20T10:03:03;29.70;80.60
2955;DHT22;1487;51.470;6.938;2023-07-20T10:05:33;30.50;83.90
2955;DHT22;1487;51.470;6.938;2023-07-20T10:08:02;31.30;81.70
2955;DHT22;1487;51.470;6.938;2023-07-20T10:10:32;31.90;72.20
2955;DHT22;1487;51.470;6.938;2023-07-20T10:13:00;32.40;73.40
2955;DHT22;1487;51.470;6.938;2023-07-20T10:15:30;33.00;69.50
2955;DHT22;1487;51.470;6.938;2023-07-20T10:18:03;33.30;67.80
2955;DHT22;1487;51.470;6.938;2023-07-20T10:20:35;33.60;69.00
2955;DHT22;1487;51.470;6.938;2023-07-20T10:23:04;33.80;67.10
2955;DHT22;1487;51.470;6.938;2023-07-20T10:25:31;33.30;65.00
2955;DHT22;1487;51.470;6.938;2023-07-20T10:28:04;32.10;61.10
2955;DHT22;1487;51.470;6.938;2023-07-20T10:30:32;31.40;65.20
2955;DHT22;1487;51.470;6.938;2023-07-20T10:32:59;31.30;58.60
2955;DHT22;1487;51.470;6.938;2023-07-20T10:35:28;31.40;63.30
2955;DHT22;1487;51.470;6.938;2023-07-20T10:38:00;31.90;69.20
2955;DHT22;1487;51.470;6.938;2023-07-20T10:40:29;32.70;63.90
2955;DHT22;1487;51.470;6.938;2023-07-20T10:42:58;33.30;60.70
2955;DHT22;1487;51.470;6.938;2023-07-20T10:45:42;32.90;59.60
2955;DHT22;1487;51.470;6.938;2023-07-20T10:48:19;31.70;63.40
2955;DHT22;1487;51.470;6.938;2023-07-20T10:51:10;30.40;67.30
2955;DHT22;1487;51.470;6.938;2023-07-20T10:53:38;29.70;67.80
2955;DHT22;1487;51.470;6.938;2023-07-20T10:56:06;30.20;69.60
2955;DHT22;1487;51.470;6.938;2023-07-20T10:58:34;30.50;67.90
2955;DHT22;1487;51.470;6.938;2023-07-20T11:01:02;30.80;61.60
2955;DHT22;1487;51.470;6.938;2023-07-20T11:03:30;31.20;66.50
2955;DHT22;1487;51.470;6.938;2023-07-20T11:05:58;31.50;61.50
2955;DHT22;1487;51.470;6.938;2023-07-20T11:08:40;32.10;65.40
2955;DHT22;1487;51.470;6.938;2023-07-20T11:11:24;32.70;63.50
2955;DHT22;1487;51.470;6.938;2023-07-20T11:13:55;33.00;63.00
2955;DHT22;1487;51.470;6.938;2023-07-20T11:16:40;32.40;58.00
2955;DHT22;1487;51.470;6.938;2023-07-20T11:19:14;31.50;66.50
2955;DHT22;1487;51.470;6.938;2023-07-20T11:21:44;31.40;59.80
2955;DHT22;1487;51.470;6.938;2023-07-20T11:24:13;31.10;60.40
2955;DHT22;1487;51.470;6.938;2023-07-20T11:26:41;30.00;61.20
2955;DHT22;1487;51.470;6.938;2023-07-20T11:29:07;29.40;64.10
2955;DHT22;1487;51.470;6.938;2023-07-20T11:31:38;29.10;63.40
2955;DHT22;1487;51.470;6.938;2023-07-20T11:34:05;28.40;65.10
2955;DHT22;1487;51.470;6.938;2023-07-20T11:36:33;27.80;72.40
2955;DHT22;1487;51.470;6.938;2023-07-20T11:39:00;27.60;73.70
2955;DHT22;1487;51.470;6.938;2023-07-20T11:41:31;27.10;70.20
2955;DHT22;1487;51.470;6.938;2023-07-20T11:43:59;27.00;70.20
2955;DHT22;1487;51.470;6.938;2023-07-20T11:46:27;27.60;72.00
2955;DHT22;1487;51.470;6.938;2023-07-20T11:48:58;27.90;72.20
2955;DHT22;1487;51.470;6.938;2023-07-20T11:51:27;28.90;69.60
2955;DHT22;1487;51.470;6.938;2023-07-20T11:53:54;29.60;63.20
2955;DHT22;1487;51.470;6.938;2023-07-20T11:56:22;30.50;65.70
2955;DHT22;1487;51.470;6.938;2023-07-20T11:58:53;31.20;64.50
2955;DHT22;1487;51.470;6.938;2023-07-20T12:01:20;31.20;63.10
2955;DHT22;1487;51.470;6.938;2023-07-20T12:03:48;31.50;63.50
2955;DHT22;1487;51.470;6.938;2023-07-20T12:06:15;31.90;61.60
2955;DHT22;1487;51.470;6.938;2023-07-20T12:08:43;32.00;58.60
2955;DHT22;1487;51.470;6.938;2023-07-20T12:11:10;31.60;54.70
2955;DHT22;1487;51.470;6.938;2023-07-20T12:13:38;31.00;57.00
2955;DHT22;1487;51.470;6.938;2023-07-20T12:16:14;31.30;58.10
2955;DHT22;1487;51.470;6.938;2023-07-20T12:18:42;31.20;63.60
2955;DHT22;1487;51.470;6.938;2023-07-20T12:21:10;30.60;59.10
2955;DHT22;1487;51.470;6.938;2023-07-20T12:23:38;30.40;63.20
2955;DHT22;1487;51.470;6.938;2023-07-20T12:26:09;31.00;61.10
2955;DHT22;1487;51.470;6.938;2023-07-20T12:35:51;31.20;63.30
2955;DHT22;1487;51.470;6.938;2023-07-20T12:38:21;32.00;61.10
2955;DHT22;1487;51.470;6.938;2023-07-20T12:40:48;32.20;58.10
2955;DHT22;1487;51.470;6.938;2023-07-20T12:43:15;32.00;57.50
2955;DHT22;1487;51.470;6.938;2023-07-20T12:45:42;31.10;58.20
2955;DHT22;1487;51.470;6.938;2023-07-20T12:48:09;29.90;58.30
2955;DHT22;1487;51.470;6.938;2023-07-20T12:50:35;28.90;60.40
2955;DHT22;1487;51.470;6.938;2023-07-20T12:53:04;28.10;65.60
2955;DHT22;1487;51.470;6.938;2023-07-20T12:55:31;27.30;64.80
2955;DHT22;1487;51.470;6.938;2023-07-20T12:57:58;26.50;62.20
2955;DHT22;1487;51.470;6.938;2023-07-20T13:00:24;26.10;65.60
2955;DHT22;1487;51.470;6.938;2023-07-20T13:02:51;26.50;68.60
2955;DHT22;1487;51.470;6.938;2023-07-20T13:05:18;27.30;67.40
2955;DHT22;1487;51.470;6.938;2023-07-20T13:07:45;28.20;67.10
2955;DHT22;1487;51.470;6.938;2023-07-20T13:10:13;28.70;64.40
2955;DHT22;1487;51.470;6.938;2023-07-20T13:12:40;28.80;60.50
2955;DHT22;1487;51.470;6.938;2023-07-20T13:15:08;28.50;63.30
2955;DHT22;1487;51.470;6.938;2023-07-20T13:17:36;29.20;64.70
2955;DHT22;1487;51.470;6.938;2023-07-20T13:20:05;30.20;62.60
2955;DHT22;1487;51.470;6.938;2023-07-20T13:22:33;30.60;59.00
2955;DHT22;1487;51.470;6.938;2023-07-20T13:25:00;30.20;59.70
2955;DHT22;1487;51.470;6.938;2023-07-20T13:27:28;30.40;62.00
2955;DHT22;1487;51.470;6.938;2023-07-20T13:29:56;30.80;60.60
2955;DHT22;1487;51.470;6.938;2023-07-20T13:32:23;30.50;59.80
2955;DHT22;1487;51.470;6.938;2023-07-20T13:34:49;30.50;60.00
2955;DHT22;1487;51.470;6.938;2023-07-20T13:37:16;30.70;61.60
2955;DHT22;1487;51.470;6.938;2023-07-20T13:39:43;30.30;63.70
2955;DHT22;1487;51.470;6.938;2023-07-20T13:42:10;29.70;61.20
2955;DHT22;1487;51.470;6.938;2023-07-20T13:44:39;29.10;63.50
2955;DHT22;1487;51.470;6.938;2023-07-20T13:47:06;29.10;63.30
2955;DHT22;1487;51.470;6.938;2023-07-20T13:49:33;29.00;65.80
2955;DHT22;1487;51.470;6.938;2023-07-20T13:52:00;28.60;68.00
2955;DHT22;1487;51.470;6.938;2023-07-20T13:54:26;28.00;65.60
2955;DHT22;1487;51.470;6.938;2023-07-20T13:56:53;27.50;64.40
2955;DHT22;1487;51.470;6.938;2023-07-20T13:59:20;26.80;68.30
2955;DHT22;1487;51.470;6.938;2023-07-20T14:01:48;26.40;73.80
2955;DHT22;1487;51.470;6.938;2023-07-20T14:04:15;26.00;74.30
2955;DHT22;1487;51.470;6.938;2023-07-20T14:06:42;25.70;73.80
2955;DHT22;1487;51.470;6.938;2023-07-20T14:09:09;25.50;72.90
2955;DHT22;1487;51.470;6.938;2023-07-20T14:11:36;25.20;72.00
2955;DHT22;1487;51.470;6.938;2023-07-20T14:14:03;25.10;71.20
2955;DHT22;1487;51.470;6.938;2023-07-20T14:16:30;25.00;75.60
2955;DHT22;1487;51.470;6.938;2023-07-20T14:18:59;25.00;75.80
2955;DHT22;1487;51.470;6.938;2023-07-20T14:21:26;25.10;73.50
2955;DHT22;1487;51.470;6.938;2023-07-20T14:23:53;26.00;77.20
2955;DHT22;1487;51.470;6.938;2023-07-20T14:26:19;26.90;72.30
2955;DHT22;1487;51.470;6.938;2023-07-20T14:28:46;27.30;71.90
2955;DHT22;1487;51.470;6.938;2023-07-20T14:31:13;27.50;69.80
2955;DHT22;1487;51.470;6.938;2023-07-20T14:33:40;27.30;71.00
2955;DHT22;1487;51.470;6.938;2023-07-20T14:36:08;27.00;71.10
2955;DHT22;1487;51.470;6.938;2023-07-20T14:38:35;26.60;73.50
2955;DHT22;1487;51.470;6.938;2023-07-20T14:41:03;26.30;69.80
2955;DHT22;1487;51.470;6.938;2023-07-20T14:43:31;26.10;68.60
2955;DHT22;1487;51.470;6.938;2023-07-20T14:45:58;26.20;67.70
2955;DHT22;1487;51.470;6.938;2023-07-20T14:48:25;26.40;67.60
2955;DHT22;1487;51.470;6.938;2023-07-20T14:50:51;26.20;69.80
2955;DHT22;1487;51.470;6.938;2023-07-20T14:53:19;27.00;72.40
2955;DHT22;1487;51.470;6.938;2023-07-20T14:55:46;27.80;73.50
2955;DHT22;1487;51.470;6.938;2023-07-20T14:58:13;28.50;66.20
2955;DHT22;1487;51.470;6.938;2023-07-20T15:00:40;28.90;63.70
2955;DHT22;1487;51.470;6.938;2023-07-20T15:03:06;29.60;65.20
2955;DHT22;1487;51.470;6.938;2023-07-20T15:05:35;30.10;64.00
2955;DHT22;1487;51.470;6.938;2023-07-20T15:08:03;30.40;66.20
2955;DHT22;1487;51.470;6.938;2023-07-20T15:10:32;30.90;62.70
2955;DHT22;1487;51.470;6.938;2023-07-20T15:12:59;31.20;59.60
2955;DHT22;1487;51.470;6.938;2023-07-20T15:15:26;30.70;60.50
2955;DHT22;1487;51.470;6.938;2023-07-20T15:17:53;30.20;59.40
2955;DHT22;1487;51.470;6.938;2023-07-20T15:20:20;29.30;59.90
2955;DHT22;1487;51.470;6.938;2023-07-20T15:22:47;28.70;62.20
2955;DHT22;1487;51.470;6.938;2023-07-20T15:25:14;28.10;66.60
2955;DHT22;1487;51.470;6.938;2023-07-20T15:27:42;27.60;65.30
2955;DHT22;1487;51.470;6.938;2023-07-20T15:30:09;27.10;64.30
2955;DHT22;1487;51.470;6.938;2023-07-20T15:32:36;26.70;65.80
2955;DHT22;1487;51.470;6.938;2023-07-20T15:35:04;26.50;72.90
2955;DHT22;1487;51.470;6.938;2023-07-20T15:37:31;26.20;70.30
2955;DHT22;1487;51.470;6.938;2023-07-20T15:39:58;26.20;68.00
2955;DHT22;1487;51.470;6.938;2023-07-20T15:42:29;26.10;67.30
2955;DHT22;1487;51.470;6.938;2023-07-20T15:44:57;26.00;66.50
2955;DHT22;1487;51.470;6.938;2023-07-20T15:47:24;25.60;66.70
2955;DHT22;1487;51.470;6.938;2023-07-20T15:49:51;25.60;75.40
2955;DHT22;1487;51.470;6.938;2023-07-20T15:52:18;25.50;70.90
2955;DHT22;1487;51.470;6.938;2023-07-20T15:54:44;25.50;68.90
2955;DHT22;1487;51.470;6.938;2023-07-20T15:57:11;25.40;70.00
2955;DHT22;1487;51.470;6.938;2023-07-20T15:59:38;25.30;69.60
2955;DHT22;1487;51.470;6.938;2023-07-20T16:02:07;25.20;67.70
2955;DHT22;1487;51.470;6.938;2023-07-20T16:04:34;25.00;70.10
2955;DHT22;1487;51.470;6.938;2023-07-20T16:07:00;24.70;73.70
2955;DHT22;1487;51.470;6.938;2023-07-20T16:09:27;24.50;73.20
2955;DHT22;1487;51.470;6.938;2023-07-20T16:11:54;24.30;74.10
2955;DHT22;1487;51.470;6.938;2023-07-20T16:14:21;24.20;70.50
2955;DHT22;1487;51.470;6.938;2023-07-20T16:16:48;24.00;71.20